sensor_id;sensor_type;location;lat;lon;timestamp;pressure;altitude;pressure_sealevel;temperature;humidity
58662;BME280;44432;49.786;22.760;2023-08-31T00:02:01;98419.39;;;17.95;85.16
58662;BME280;44432;49.786;22.760;2023-08-31T00:04:33;98423.06;;;17.91;84.95
58662;BME280;44432;49.786;22.760;2023-08-31T00:07:04;98427.48;;;17.87;85.06
58662;BME280;44432;49.786;22.760;2023-08-31T00:09:36;98430.38;;;17.85;85.13
58662;BME280;44432;49.786;22.760;2023-08-31T00:12:07;98429.64;;;17.84;85.33
58662;BME280;44432;49.786;22.760;2023-08-31T00:14:38;98433.00;;;17.84;85.38
58662;BME280;44432;49.786;22.760;2023-08-31T00:17:09;98437.61;;;17.83;85.24
58662;BME280;44432;49.786;22.760;2023-08-31T00:19:39;98437.45;;;17.83;85.34
58662;BME280;44432;49.786;22.760;2023-08-31T00:22:10;98441.84;;;17.82;85.33
58662;BME280;44432;49.786;22.760;2023-08-31T00:24:40;98435.86;;;17.81;85.43
58662;BME280;44432;49.786;22.760;2023-08-31T00:27:11;98433.94;;;17.80;85.32
58662;BME280;44432;49.786;22.760;2023-08-31T00:29:44;98435.28;;;17.79;85.23
58662;BME280;44432;49.786;22.760;2023-08-31T00:32:18;98439.41;;;17.76;85.21
58662;BME280;44432;49.786;22.760;2023-08-31T00:34:51;98435.67;;;17.72;85.29
58662;BME280;44432;49.786;22.760;2023-08-31T00:37:22;98438.71;;;17.71;85.26
58662;BME280;44432;49.786;22.760;2023-08-31T00:39:52;98437.89;;;17.69;85.38
58662;BME280;44432;49.786;22.760;2023-08-31T00:42:24;98439.88;;;17.68;85.44
58662;BME280;44432;49.786;22.760;2023-08-31T00:44:55;98433.70;;;17.64;85.45
58662;BME280;44432;49.786;22.760;2023-08-31T00:47:26;98436.01;;;17.66;85.56
58662;BME280;44432;49.786;22.760;2023-08-31T00:49:57;98438.58;;;17.66;85.59
58662;BME280;44432;49.786;22.760;2023-08-31T00:52:28;98440.91;;;17.67;85.66
58662;BME280;44432;49.786;22.760;2023-08-31T00:54:59;98439.35;;;17.68;85.76
58662;BME280;44432;49.786;22.760;2023-08-31T00:57:33;98445.31;;;17.68;85.60
58662;BME280;44432;49.786;22.760;2023-08-31T01:00:05;98448.13;;;17.69;85.60
58662;BME280;44432;49.786;22.760;2023-08-31T01:02:43;98451.33;;;17.70;85.80
58662;BME280;44432;49.786;22.760;2023-08-31T01:05:29;98450.04;;;17.71;85.73
58662;BME280;44432;49.786;22.760;2023-08-31T01:08:14;98447.73;;;17.72;85.76
58662;BME280;44432;49.786;22.760;2023-08-31T01:10:55;98447.95;;;17.71;85.90
58662;BME280;44432;49.786;22.760;2023-08-31T01:13:32;98451.73;;;17.72;85.91
58662;BME280;44432;49.786;22.760;2023-08-31T01:16:06;98445.76;;;17.72;85.95
58662;BME280;44432;49.786;22.760;2023-08-31T01:18:40;98446.94;;;17.71;86.06
58662;BME280;44432;49.786;22.760;2023-08-31T01:21:17;98449.73;;;17.69;86.01
58662;BME280;44432;49.786;22.760;2023-08-31T01:23:53;98448.10;;;17.68;86.01
58662;BME280;44432;49.786;22.760;2023-08-31T01:26:24;98450.40;;;17.68;86.22
58662;BME280;44432;49.786;22.760;2023-08-31T01:28:56;98446.90;;;17.65;86.26
58662;BME280;44432;49.786;22.760;2023-08-31T01:31:27;98451.16;;;17.67;86.35
58662;BME280;44432;49.786;22.760;2023-08-31T01:33:58;98451.86;;;17.67;86.40
58662;BME280;44432;49.786;22.760;2023-08-31T01:36:29;98452.73;;;17.67;86.39
58662;BME280;44432;49.786;22.760;2023-08-31T01:39:10;98457.88;;;17.68;86.46
58662;BME280;44432;49.786;22.760;2023-08-31T01:41:44;98452.50;;;17.67;86.40
58662;BME280;44432;49.786;22.760;2023-08-31T01:44:17;98456.77;;;17.66;86.29
58662;BME280;44432;49.786;22.760;2023-08-31T01:46:53;98463.17;;;17.65;86.40
58662;BME280;44432;49.786;22.760;2023-08-31T01:49:24;98464.18;;;17.63;86.46
58662;BME280;44432;49.786;22.760;2023-08-31T01:51:55;98462.70;;;17.61;86.45
58662;BME280;44432;49.786;22.760;2023-08-31T01:54:26;98465.01;;;17.59;86.48
58662;BME280;44432;49.786;22.760;2023-08-31T01:56:57;98465.39;;;17.57;86.56
58662;BME280;44432;49.786;22.760;2023-08-31T01:59:28;98470.80;;;17.56;86.64
58662;BME280;44432;49.786;22.760;2023-08-31T02:01:58;98477.70;;;17.54;86.73
58662;BME280;44432;49.786;22.760;2023-08-31T02:04:29;98474.40;;;17.53;86.73
58662;BME280;44432;49.786;22.760;2023-08-31T02:07:00;98478.36;;;17.52;86.76
58662;BME280;44432;49.786;22.760;2023-08-31T02:09:30;98477.46;;;17.49;86.89
58662;BME280;44432;49.786;22.760;2023-08-31T02:12:01;98473.20;;;17.49;86.94
58662;BME280;44432;49.786;22.760;2023-08-31T02:14:32;98474.53;;;17.49;87.01
58662;BME280;44432;49.786;22.760;2023-08-31T02:17:03;98472.34;;;17.48;87.08
58662;BME280;44432;49.786;22.760;2023-08-31T02:19:33;98469.52;;;17.48;87.09
58662;BME280;44432;49.786;22.760;2023-08-31T02:22:04;98470.31;;;17.49;87.21
58662;BME280;44432;49.786;22.760;2023-08-31T02:24:35;98468.29;;;17.49;87.13
58662;BME280;44432;49.786;22.760;2023-08-31T02:27:06;98464.23;;;17.49;87.21
58662;BME280;44432;49.786;22.760;2023-08-31T02:29:36;98463.58;;;17.50;87.11
58662;BME280;44432;49.786;22.760;2023-08-31T02:32:08;98462.36;;;17.50;87.16
58662;BME280;44432;49.786;22.760;2023-08-31T02:34:39;98470.89;;;17.49;87.12
58662;BME280;44432;49.786;22.760;2023-08-31T02:37:09;98467.23;;;17.48;87.04
58662;BME280;44432;49.786;22.760;2023-08-31T02:39:40;98468.25;;;17.46;86.91
58662;BME280;44432;49.786;22.760;2023-08-31T02:42:11;98471.13;;;17.46;87.07
58662;BME280;44432;49.786;22.760;2023-08-31T02:44:42;98479.17;;;17.48;87.08
58662;BME280;44432;49.786;22.760;2023-08-31T02:47:12;98480.88;;;17.48;87.12
58662;BME280;44432;49.786;22.760;2023-08-31T02:49:43;98482.95;;;17.50;87.10
58662;BME280;44432;49.786;22.760;2023-08-31T02:52:14;98487.76;;;17.50;87.23
58662;BME280;44432;49.786;22.760;2023-08-31T02:54:44;98487.70;;;17.50;87.20
58662;BME280;44432;49.786;22.760;2023-08-31T02:57:16;98492.02;;;17.51;87.23
58662;BME280;44432;49.786;22.760;2023-08-31T02:59:52;98495.91;;;17.52;87.37
58662;BME280;44432;49.786;22.760;2023-08-31T03:02:22;98500.92;;;17.53;87.31
58662;BME280;44432;49.786;22.760;2023-08-31T03:04:53;98508.30;;;17.52;87.34
58662;BME280;44432;49.786;22.760;2023-08-31T03:07:25;98507.55;;;17.52;87.35
58662;BME280;44432;49.786;22.760;2023-08-31T03:09:56;98505.19;;;17.53;87.43
58662;BME280;44432;49.786;22.760;2023-08-31T03:12:26;98507.59;;;17.54;87.51
58662;BME280;44432;49.786;22.760;2023-08-31T03:14:57;98505.28;;;17.55;87.63
58662;BME280;44432;49.786;22.760;2023-08-31T03:17:28;98511.68;;;17.57;87.76
58662;BME280;44432;49.786;22.760;2023-08-31T03:19:59;98516.20;;;17.59;87.61
58662;BME280;44432;49.786;22.760;2023-08-31T03:22:29;98514.66;;;17.59;87.64
58662;BME280;44432;49.786;22.760;2023-08-31T03:25:00;98515.83;;;17.60;87.49
58662;BME280;44432;49.786;22.760;2023-08-31T03:27:31;98522.60;;;17.61;87.51
58662;BME280;44432;49.786;22.760;2023-08-31T03:30:02;98521.21;;;17.60;87.37
58662;BME280;44432;49.786;22.760;2023-08-31T03:32:33;98526.18;;;17.60;87.52
58662;BME280;44432;49.786;22.760;2023-08-31T03:35:05;98521.81;;;17.60;87.43
58662;BME280;44432;49.786;22.760;2023-08-31T03:37:36;98520.63;;;17.61;87.24
58662;BME280;44432;49.786;22.760;2023-08-31T03:40:09;98523.52;;;17.60;87.26
58662;BME280;44432;49.786;22.760;2023-08-31T03:42:39;98526.61;;;17.60;87.23
58662;BME280;44432;49.786;22.760;2023-08-31T03:45:10;98528.33;;;17.60;87.17
58662;BME280;44432;49.786;22.760;2023-08-31T03:47:41;98529.39;;;17.59;87.23
58662;BME280;44432;49.786;22.760;2023-08-31T03:50:12;98530.94;;;17.60;87.16
58662;BME280;44432;49.786;22.760;2023-08-31T03:52:43;98530.08;;;17.61;87.19
58662;BME280;44432;49.786;22.760;2023-08-31T03:55:14;98529.39;;;17.61;87.07
58662;BME280;44432;49.786;22.760;2023-08-31T03:57:44;98530.98;;;17.60;86.91
58662;BME280;44432;49.786;22.760;2023-08-31T04:00:16;98528.69;;;17.60;86.95
58662;BME280;44432;49.786;22.760;2023-08-31T04:02:48;98526.77;;;17.61;86.98
58662;BME280;44432;49.786;22.760;2023-08-31T04:05:18;98530.08;;;17.61;87.01
58662;BME280;44432;49.786;22.760;2023-08-31T04:07:49;98533.27;;;17.62;86.85
58662;BME280;44432;49.786;22.760;2023-08-31T04:10:20;98534.34;;;17.61;86.91
58662;BME280;44432;49.786;22.760;2023-08-31T04:12:50;98536.11;;;17.61;86.93
58662;BME280;44432;49.786;22.760;2023-08-31T04:15:21;98534.35;;;17.59;86.89
58662;BME280;44432;49.786;22.760;2023-08-31T04:17:51;98536.00;;;17.60;86.90
58662;BME280;44432;49.786;22.760;2023-08-31T04:20:22;98534.88;;;17.60;86.95
58662;BME280;44432;49.786;22.760;2023-08-31T04:22:52;98535.58;;;17.60;86.82
58662;BME280;44432;49.786;22.760;2023-08-31T04:25:23;98536.16;;;17.60;86.59
58662;BME280;44432;49.786;22.760;2023-08-31T04:27:54;98539.52;;;17.60;86.68
58662;BME280;44432;49.786;22.760;2023-08-31T04:30:26;98538.67;;;17.61;86.71
58662;BME280;44432;49.786;22.760;2023-08-31T04:32:57;98542.02;;;17.63;86.66
58662;BME280;44432;49.786;22.760;2023-08-31T04:35:27;98545.55;;;17.66;86.70
58662;BME280;44432;49.786;22.760;2023-08-31T04:38:00;98548.70;;;17.70;86.62
58662;BME280;44432;49.786;22.760;2023-08-31T04:40:31;98550.23;;;17.74;86.59
58662;BME280;44432;49.786;22.760;2023-08-31T04:43:02;98551.86;;;17.79;86.56
58662;BME280;44432;49.786;22.760;2023-08-31T04:45:33;98551.93;;;17.84;86.46
58662;BME280;44432;49.786;22.760;2023-08-31T04:48:04;98559.36;;;17.90;86.38
58662;BME280;44432;49.786;22.760;2023-08-31T04:50:35;98564.52;;;17.95;86.23
58662;BME280;44432;49.786;22.760;2023-08-31T04:53:06;98567.75;;;17.99;86.11
58662;BME280;44432;49.786;22.760;2023-08-31T04:55:37;98571.20;;;18.03;85.97
58662;BME280;44432;49.786;22.760;2023-08-31T04:58:07;98578.10;;;18.08;86.01
58662;BME280;44432;49.786;22.760;2023-08-31T05:00:38;98583.84;;;18.12;85.91
58662;BME280;44432;49.786;22.760;2023-08-31T05:03:09;98588.04;;;18.16;85.83
58662;BME280;44432;49.786;22.760;2023-08-31T05:05:40;98593.62;;;18.19;85.57
58662;BME280;44432;49.786;22.760;2023-08-31T05:08:11;98595.74;;;18.21;85.38
58662;BME280;44432;49.786;22.760;2023-08-31T05:10:42;98597.88;;;18.22;85.23
58662;BME280;44432;49.786;22.760;2023-08-31T05:13:15;98601.70;;;18.25;85.34
58662;BME280;44432;49.786;22.760;2023-08-31T05:15:46;98604.96;;;18.26;85.13
58662;BME280;44432;49.786;22.760;2023-08-31T05:18:17;98605.39;;;18.26;85.19
58662;BME280;44432;49.786;22.760;2023-08-31T05:20:48;98608.88;;;18.30;85.19
58662;BME280;44432;49.786;22.760;2023-08-31T05:23:19;98604.96;;;18.33;85.12
58662;BME280;44432;49.786;22.760;2023-08-31T05:25:50;98612.83;;;18.38;84.96
58662;BME280;44432;49.786;22.760;2023-08-31T05:28:20;98609.36;;;18.44;84.88
58662;BME280;44432;49.786;22.760;2023-08-31T05:30:52;98616.17;;;18.48;84.62
58662;BME280;44432;49.786;22.760;2023-08-31T05:33:23;98616.68;;;18.51;84.51
58662;BME280;44432;49.786;22.760;2023-08-31T05:35:56;98619.59;;;18.54;84.48
58662;BME280;44432;49.786;22.760;2023-08-31T05:38:27;98617.12;;;18.56;84.25
58662;BME280;44432;49.786;22.760;2023-08-31T05:41:06;98619.89;;;18.58;84.08
58662;BME280;44432;49.786;22.760;2023-08-31T05:43:38;98618.65;;;18.60;83.92
58662;BME280;44432;49.786;22.760;2023-08-31T05:46:09;98619.61;;;18.58;83.79
58662;BME280;44432;49.786;22.760;2023-08-31T05:48:40;98618.71;;;18.57;83.94
58662;BME280;44432;49.786;22.760;2023-08-31T05:51:11;98623.04;;;18.60;83.61
58662;BME280;44432;49.786;22.760;2023-08-31T05:53:41;98620.16;;;18.60;83.66
58662;BME280;44432;49.786;22.760;2023-08-31T05:56:12;98622.33;;;18.65;83.54
58662;BME280;44432;49.786;22.760;2023-08-31T05:58:43;98622.10;;;18.65;83.22
58662;BME280;44432;49.786;22.760;2023-08-31T06:01:13;98626.38;;;18.66;83.24
58662;BME280;44432;49.786;22.760;2023-08-31T06:03:44;98631.30;;;18.66;82.63
58662;BME280;44432;49.786;22.760;2023-08-31T06:06:14;98634.48;;;18.58;82.05
58662;BME280;44432;49.786;22.760;2023-08-31T06:08:46;98642.41;;;18.55;81.95
58662;BME280;44432;49.786;22.760;2023-08-31T06:11:17;98640.98;;;18.48;81.75
58662;BME280;44432;49.786;22.760;2023-08-31T06:13:48;98648.11;;;18.45;81.78
58662;BME280;44432;49.786;22.760;2023-08-31T06:16:18;98648.44;;;18.38;81.14
58662;BME280;44432;49.786;22.760;2023-08-31T06:18:49;98644.98;;;18.25;81.07
58662;BME280;44432;49.786;22.760;2023-08-31T06:21:20;98648.62;;;18.18;81.40
58662;BME280;44432;49.786;22.760;2023-08-31T06:23:51;98652.23;;;18.21;81.64
58662;BME280;44432;49.786;22.760;2023-08-31T06:26:22;98652.59;;;18.23;81.99
58662;BME280;44432;49.786;22.760;2023-08-31T06:28:52;98653.75;;;18.34;82.26
58662;BME280;44432;49.786;22.760;2023-08-31T06:31:23;98658.28;;;18.43;82.01
58662;BME280;44432;49.786;22.760;2023-08-31T06:33:54;98663.56;;;18.45;81.68
58662;BME280;44432;49.786;22.760;2023-08-31T06:36:25;98664.09;;;18.53;81.99
58662;BME280;44432;49.786;22.760;2023-08-31T06:38:56;98662.80;;;18.65;81.90
58662;BME280;44432;49.786;22.760;2023-08-31T06:41:26;98659.66;;;18.73;81.29
58662;BME280;44432;49.786;22.760;2023-08-31T06:43:57;98659.80;;;18.80;81.23
58662;BME280;44432;49.786;22.760;2023-08-31T06:46:28;98658.98;;;18.88;80.80
58662;BME280;44432;49.786;22.760;2023-08-31T06:48:59;98662.90;;;18.93;80.51
58662;BME280;44432;49.786;22.760;2023-08-31T06:51:30;98663.38;;;18.99;80.29
58662;BME280;44432;49.786;22.760;2023-08-31T06:54:00;98664.16;;;19.07;80.25
58662;BME280;44432;49.786;22.760;2023-08-31T06:56:35;98665.27;;;19.14;79.88
58662;BME280;44432;49.786;22.760;2023-08-31T06:59:06;98663.77;;;19.14;79.19
58662;BME280;44432;49.786;22.760;2023-08-31T07:01:37;98669.14;;;19.06;79.03
58662;BME280;44432;49.786;22.760;2023-08-31T07:04:08;98672.45;;;19.08;79.23
58662;BME280;44432;49.786;22.760;2023-08-31T07:06:39;98677.98;;;19.05;78.64
58662;BME280;44432;49.786;22.760;2023-08-31T07:09:10;98683.33;;;18.94;78.56
58662;BME280;44432;49.786;22.760;2023-08-31T07:11:40;98687.79;;;18.85;78.92
58662;BME280;44432;49.786;22.760;2023-08-31T07:14:11;98690.29;;;18.87;79.41
58662;BME280;44432;49.786;22.760;2023-08-31T07:16:42;98691.80;;;18.91;79.48
58662;BME280;44432;49.786;22.760;2023-08-31T07:19:12;98696.40;;;18.99;79.66
58662;BME280;44432;49.786;22.760;2023-08-31T07:21:43;98702.13;;;19.09;79.52
58662;BME280;44432;49.786;22.760;2023-08-31T07:24:15;98711.98;;;19.19;79.34
58662;BME280;44432;49.786;22.760;2023-08-31T07:26:45;98715.10;;;19.25;78.84
58662;BME280;44432;49.786;22.760;2023-08-31T07:29:16;98721.13;;;19.27;78.53
58662;BME280;44432;49.786;22.760;2023-08-31T07:31:47;98723.27;;;19.26;78.07
58662;BME280;44432;49.786;22.760;2023-08-31T07:34:18;98722.28;;;19.23;78.04
58662;BME280;44432;49.786;22.760;2023-08-31T07:36:48;98727.04;;;19.19;77.53
58662;BME280;44432;49.786;22.760;2023-08-31T07:39:19;98729.20;;;19.10;76.92
58662;BME280;44432;49.786;22.760;2023-08-31T07:41:50;98733.06;;;19.09;77.11
58662;BME280;44432;49.786;22.760;2023-08-31T07:44:21;98734.85;;;19.18;77.49
58662;BME280;44432;49.786;22.760;2023-08-31T07:46:51;98733.86;;;19.33;77.52
58662;BME280;44432;49.786;22.760;2023-08-31T07:49:22;98732.07;;;19.46;77.45
58662;BME280;44432;49.786;22.760;2023-08-31T07:51:53;98733.39;;;19.61;76.92
58662;BME280;44432;49.786;22.760;2023-08-31T07:54:24;98737.46;;;19.78;76.44
58662;BME280;44432;49.786;22.760;2023-08-31T07:56:55;98735.56;;;19.88;75.25
58662;BME280;44432;49.786;22.760;2023-08-31T07:59:25;98741.72;;;19.94;75.09
58662;BME280;44432;49.786;22.760;2023-08-31T08:01:57;98741.75;;;20.00;74.35
58662;BME280;44432;49.786;22.760;2023-08-31T08:04:27;98743.92;;;20.02;74.01
58662;BME280;44432;49.786;22.760;2023-08-31T08:06:59;98745.91;;;20.02;74.01
58662;BME280;44432;49.786;22.760;2023-08-31T08:09:29;98746.40;;;20.06;73.90
58662;BME280;44432;49.786;22.760;2023-08-31T08:12:00;98749.24;;;20.06;73.56
58662;BME280;44432;49.786;22.760;2023-08-31T08:14:32;98747.27;;;20.09;73.19
58662;BME280;44432;49.786;22.760;2023-08-31T08:17:04;98748.61;;;20.04;72.14
58662;BME280;44432;49.786;22.760;2023-08-31T08:19:34;98750.35;;;19.93;72.02
58662;BME280;44432;49.786;22.760;2023-08-31T08:22:05;98754.84;;;19.85;72.40
58662;BME280;44432;49.786;22.760;2023-08-31T08:24:36;98756.06;;;19.90;72.78
58662;BME280;44432;49.786;22.760;2023-08-31T08:27:07;98755.42;;;20.04;72.65
58662;BME280;44432;49.786;22.760;2023-08-31T08:29:37;98754.75;;;20.19;72.62
58662;BME280;44432;49.786;22.760;2023-08-31T08:32:08;98756.41;;;20.32;72.90
58662;BME280;44432;49.786;22.760;2023-08-31T08:34:39;98756.91;;;20.41;72.63
58662;BME280;44432;49.786;22.760;2023-08-31T08:37:10;98760.78;;;20.38;71.83
58662;BME280;44432;49.786;22.760;2023-08-31T08:39:41;98757.27;;;20.28;71.88
58662;BME280;44432;49.786;22.760;2023-08-31T08:42:12;98756.26;;;20.23;72.03
58662;BME280;44432;49.786;22.760;2023-08-31T08:44:44;98764.94;;;20.11;71.59
58662;BME280;44432;49.786;22.760;2023-08-31T08:47:15;98769.26;;;19.94;71.83
58662;BME280;44432;49.786;22.760;2023-08-31T08:49:47;98770.59;;;19.85;72.13
58662;BME280;44432;49.786;22.760;2023-08-31T08:52:18;98777.83;;;19.76;72.38
58662;BME280;44432;49.786;22.760;2023-08-31T08:54:49;98782.84;;;19.71;72.80
58662;BME280;44432;49.786;22.760;2023-08-31T08:57:20;98783.69;;;19.65;72.81
58662;BME280;44432;49.786;22.760;2023-08-31T08:59:51;98784.75;;;19.55;73.12
58662;BME280;44432;49.786;22.760;2023-08-31T09:02:21;98787.41;;;19.49;73.48
58662;BME280;44432;49.786;22.760;2023-08-31T09:04:53;98786.91;;;19.45;73.67
58662;BME280;44432;49.786;22.760;2023-08-31T09:07:24;98793.23;;;19.40;73.41
58662;BME280;44432;49.786;22.760;2023-08-31T09:09:55;98795.42;;;19.26;73.63
58662;BME280;44432;49.786;22.760;2023-08-31T09:12:26;98798.21;;;19.19;73.79
58662;BME280;44432;49.786;22.760;2023-08-31T09:15:01;98798.43;;;19.19;73.91
58662;BME280;44432;49.786;22.760;2023-08-31T09:17:41;98803.55;;;19.22;73.97
58662;BME280;44432;49.786;22.760;2023-08-31T09:20:13;98806.06;;;19.29;74.03
58662;BME280;44432;49.786;22.760;2023-08-31T09:22:45;98808.09;;;19.41;73.85
58662;BME280;44432;49.786;22.760;2023-08-31T09:25:16;98810.34;;;19.55;73.62
58662;BME280;44432;49.786;22.760;2023-08-31T09:27:48;98805.28;;;19.75;73.41
58662;BME280;44432;49.786;22.760;2023-08-31T09:30:19;98807.36;;;19.99;73.01
58662;BME280;44432;49.786;22.760;2023-08-31T09:32:54;98810.90;;;20.17;72.07
58662;BME280;44432;49.786;22.760;2023-08-31T09:35:25;98816.15;;;20.31;71.34
58662;BME280;44432;49.786;22.760;2023-08-31T09:37:59;98817.34;;;20.45;71.01
58662;BME280;44432;49.786;22.760;2023-08-31T09:40:32;98816.05;;;20.49;70.29
58662;BME280;44432;49.786;22.760;2023-08-31T09:43:02;98817.63;;;20.64;70.95
58662;BME280;44432;49.786;22.760;2023-08-31T09:45:34;98817.23;;;20.74;69.67
58662;BME280;44432;49.786;22.760;2023-08-31T09:48:06;98820.84;;;20.65;69.40
58662;BME280;44432;49.786;22.760;2023-08-31T09:50:38;98821.69;;;20.69;69.78
58662;BME280;44432;49.786;22.760;2023-08-31T09:53:11;98826.21;;;20.84;69.48
58662;BME280;44432;49.786;22.760;2023-08-31T09:55:43;98824.88;;;20.67;68.11
58662;BME280;44432;49.786;22.760;2023-08-31T09:58:18;98825.61;;;20.53;69.29
58662;BME280;44432;49.786;22.760;2023-08-31T10:00:50;98833.73;;;20.46;69.27
58662;BME280;44432;49.786;22.760;2023-08-31T10:03:22;98839.34;;;20.39;68.95
58662;BME280;44432;49.786;22.760;2023-08-31T10:05:53;98839.83;;;20.24;69.04
58662;BME280;44432;49.786;22.760;2023-08-31T10:08:25;98840.76;;;20.27;69.51
58662;BME280;44432;49.786;22.760;2023-08-31T10:11:02;98841.45;;;20.32;69.91
58662;BME280;44432;49.786;22.760;2023-08-31T10:13:35;98841.23;;;20.42;70.38
58662;BME280;44432;49.786;22.760;2023-08-31T10:16:09;98844.88;;;20.52;70.08
58662;BME280;44432;49.786;22.760;2023-08-31T10:18:40;98849.85;;;20.57;69.56
58662;BME280;44432;49.786;22.760;2023-08-31T10:21:12;98851.02;;;20.49;69.56
58662;BME280;44432;49.786;22.760;2023-08-31T10:23:50;98853.77;;;20.48;69.79
58662;BME280;44432;49.786;22.760;2023-08-31T10:26:28;98855.77;;;20.52;70.23
58662;BME280;44432;49.786;22.760;2023-08-31T10:29:00;98855.77;;;20.51;69.86
58662;BME280;44432;49.786;22.760;2023-08-31T10:31:31;98856.23;;;20.49;70.10
58662;BME280;44432;49.786;22.760;2023-08-31T10:34:03;98853.71;;;20.44;70.37
58662;BME280;44432;49.786;22.760;2023-08-31T10:36:39;98859.86;;;20.29;70.04
58662;BME280;44432;49.786;22.760;2023-08-31T10:39:14;98864.98;;;20.13;70.27
58662;BME280;44432;49.786;22.760;2023-08-31T10:41:53;98870.30;;;19.97;70.00
58662;BME280;44432;49.786;22.760;2023-08-31T10:44:25;98874.44;;;19.84;70.89
58662;BME280;44432;49.786;22.760;2023-08-31T10:46:58;98878.39;;;19.76;70.98
58662;BME280;44432;49.786;22.760;2023-08-31T10:49:30;98878.77;;;19.69;71.14
58662;BME280;44432;49.786;22.760;2023-08-31T10:55:07;98877.75;;;19.58;71.37
58662;BME280;44432;49.786;22.760;2023-08-31T10:57:39;98878.23;;;19.53;71.68
58662;BME280;44432;49.786;22.760;2023-08-31T11:00:11;98877.27;;;19.48;71.68
58662;BME280;44432;49.786;22.760;2023-08-31T11:02:44;98877.27;;;19.47;72.00
58662;BME280;44432;49.786;22.760;2023-08-31T11:05:17;98877.55;;;19.47;72.13
58662;BME280;44432;49.786;22.760;2023-08-31T11:07:48;98879.23;;;19.43;72.29
58662;BME280;44432;49.786;22.760;2023-08-31T11:10:23;98880.87;;;19.40;72.51
58662;BME280;44432;49.786;22.760;2023-08-31T11:12:56;98879.52;;;19.35;72.72
58662;BME280;44432;49.786;22.760;2023-08-31T11:15:28;98884.59;;;19.42;73.46
58662;BME280;44432;49.786;22.760;2023-08-31T11:17:59;98878.75;;;19.54;73.33
58662;BME280;44432;49.786;22.760;2023-08-31T11:20:32;98878.37;;;19.68;73.02
58662;BME280;44432;49.786;22.760;2023-08-31T11:23:02;98884.64;;;19.77;73.09
58662;BME280;44432;49.786;22.760;2023-08-31T11:25:33;98885.20;;;19.84;72.23
58662;BME280;44432;49.786;22.760;2023-08-31T11:28:07;98886.97;;;19.90;72.35
58662;BME280;44432;49.786;22.760;2023-08-31T11:30:38;98887.20;;;20.00;71.78
58662;BME280;44432;49.786;22.760;2023-08-31T11:33:10;98888.08;;;20.08;71.65
58662;BME280;44432;49.786;22.760;2023-08-31T11:35:42;98882.63;;;20.21;71.52
58662;BME280;44432;49.786;22.760;2023-08-31T11:38:14;98883.27;;;20.33;70.85
58662;BME280;44432;49.786;22.760;2023-08-31T11:40:44;98883.73;;;20.39;70.46
58662;BME280;44432;49.786;22.760;2023-08-31T11:43:16;98877.50;;;20.46;70.16
58662;BME280;44432;49.786;22.760;2023-08-31T11:45:49;98879.20;;;20.61;70.47
58662;BME280;44432;49.786;22.760;2023-08-31T11:48:20;98882.09;;;20.80;70.24
58662;BME280;44432;49.786;22.760;2023-08-31T11:50:51;98881.17;;;20.92;68.81
58662;BME280;44432;49.786;22.760;2023-08-31T11:53:22;98883.30;;;21.02;68.85
58662;BME280;44432;49.786;22.760;2023-08-31T11:55:53;98884.09;;;21.18;68.48
58662;BME280;44432;49.786;22.760;2023-08-31T11:58:25;98887.04;;;21.27;67.10
58662;BME280;44432;49.786;22.760;2023-08-31T12:01:00;98886.83;;;21.30;66.70
58662;BME280;44432;49.786;22.760;2023-08-31T12:03:43;98885.30;;;21.29;65.60
58662;BME280;44432;49.786;22.760;2023-08-31T12:06:16;98887.06;;;21.25;65.40
58662;BME280;44432;49.786;22.760;2023-08-31T12:08:48;98885.32;;;21.18;65.43
58662;BME280;44432;49.786;22.760;2023-08-31T12:11:21;98885.19;;;21.16;65.50
58662;BME280;44432;49.786;22.760;2023-08-31T12:13:52;98888.13;;;21.12;65.55
58662;BME280;44432;49.786;22.760;2023-08-31T12:16:23;98886.42;;;21.09;65.60
58662;BME280;44432;49.786;22.760;2023-08-31T12:18:58;98889.56;;;21.06;65.50
58662;BME280;44432;49.786;22.760;2023-08-31T12:21:29;98887.02;;;20.96;64.80
58662;BME280;44432;49.786;22.760;2023-08-31T12:24:00;98891.72;;;20.90;65.32
58662;BME280;44432;49.786;22.760;2023-08-31T12:26:32;98896.30;;;20.84;64.89
58662;BME280;44432;49.786;22.760;2023-08-31T12:29:03;98899.34;;;20.72;65.13
58662;BME280;44432;49.786;22.760;2023-08-31T12:31:35;98899.79;;;20.67;65.74
58662;BME280;44432;49.786;22.760;2023-08-31T12:34:06;98900.14;;;20.64;65.90
58662;BME280;44432;49.786;22.760;2023-08-31T12:36:37;98901.41;;;20.56;65.68
58662;BME280;44432;49.786;22.760;2023-08-31T12:39:08;98906.92;;;20.53;66.35
58662;BME280;44432;49.786;22.760;2023-08-31T12:41:40;98907.63;;;20.47;66.34
58662;BME280;44432;49.786;22.760;2023-08-31T12:44:10;98906.52;;;20.41;66.43
58662;BME280;44432;49.786;22.760;2023-08-31T12:46:41;98904.42;;;20.42;66.94
58662;BME280;44432;49.786;22.760;2023-08-31T12:49:12;98908.14;;;20.49;67.15
58662;BME280;44432;49.786;22.760;2023-08-31T12:51:42;98907.30;;;20.52;66.80
58662;BME280;44432;49.786;22.760;2023-08-31T12:54:13;98914.14;;;20.50;66.88
58662;BME280;44432;49.786;22.760;2023-08-31T12:56:44;98914.55;;;20.48;67.18
58662;BME280;44432;49.786;22.760;2023-08-31T12:59:15;98915.18;;;20.48;67.42
58662;BME280;44432;49.786;22.760;2023-08-31T13:01:45;98917.86;;;20.48;67.58
58662;BME280;44432;49.786;22.760;2023-08-31T13:04:16;98919.25;;;20.48;67.54
58662;BME280;44432;49.786;22.760;2023-08-31T13:06:47;98925.14;;;20.45;67.37
58662;BME280;44432;49.786;22.760;2023-08-31T13:09:17;98925.45;;;20.41;67.45
58662;BME280;44432;49.786;22.760;2023-08-31T13:11:48;98929.62;;;20.35;67.77
58662;BME280;44432;49.786;22.760;2023-08-31T13:14:19;98932.22;;;20.40;68.06
58662;BME280;44432;49.786;22.760;2023-08-31T13:16:50;98928.11;;;20.43;68.07